Aviation Digital Data Service (ADDS)

Output produced by METARs form (0107 UTC 24 May 2022)
found at http://www.aviationweather.gov/metar/data/
 
HEAX 240000Z 28005KT CAVOK 19/15 Q1012 NOSIG
TAF HEAX 232300Z 2400/2506 30009KT 9999 FEW020
       
HEBA 240000Z 26002KT CAVOK 18/16 Q1011 NOSIG
TAF HEBA 232300Z 2400/2506 30007KT 9999 FEW020 
     TEMPO 2400/2406 VRB03KT 3000 BR NSC
       
HESN 232300Z 36006KT CAVOK 24/00 Q1010 NOSIG
TAF HESN 232300Z 2400/2506 01008KT CAVOK
       
HEAT 240000Z 36004KT CAVOK 21/03 Q1013 NOSIG
TAF HEAT 232300Z 2400/2506 35012KT CAVOK
       
HECA 240100Z 32003KT CAVOK 21/16 Q1012 NOSIG
TAF HECA 232300Z 2400/2506 30009KT CAVOK 
     TEMPO 2400/2406 VRB03KT 4000 BR NSC
       
TAF HEAR 232300Z 2400/2506 28009KT 9999 SCT025 
     TEMPO 2403/2408 VRB03KT 3000 BR
       
HEGN 240000Z 28009KT CAVOK 26/01 Q1008 NOSIG
TAF HEGN 232300Z 2400/2506 30006G18KT CAVOK
       
HELX 240000Z 17003KT CAVOK 24/03 Q1009 NOSIG
TAF HELX 232300Z 2400/2506 32006KT CAVOK
       
HEMM 240000Z 22004KT CAVOK 17/07 Q1013 NOSIG
TAF HEMM 232300Z 2400/2506 27009KT CAVOK
       
HEPS 240000Z 29010KT CAVOK 21/18 Q1012 NOSIG
TAF HEPS 232300Z 2400/2506 35011KT CAVOK
       
HESH 240000Z 36013KT CAVOK 26/12 Q1008 NOSIG
TAF HESH 232300Z 2400/2506 34008G22KT CAVOK
       
TAF HETB 232300Z 2400/2506 31011KT CAVOK